createdAt,value
2019-03-15T00:00:32.613Z,100261.77
2019-03-15T00:01:39.290Z,100255.70
2019-03-15T00:02:45.017Z,100262.16
2019-03-15T00:03:50.628Z,100262.25
2019-03-15T00:04:55.579Z,100267.22
2019-03-15T00:06:00.972Z,100268.08
2019-03-15T00:07:05.651Z,100269.94
2019-03-15T00:08:10.888Z,100269.44
2019-03-15T00:09:15.654Z,100277.90
2019-03-15T00:10:20.675Z,100277.41
2019-03-15T00:11:25.395Z,100276.69
2019-03-15T00:12:30.083Z,100277.56
2019-03-15T00:13:35.373Z,100277.09
2019-03-15T00:14:40.370Z,100281.29
2019-03-15T00:15:47.666Z,100277.87
2019-03-15T00:16:52.979Z,100281.14
2019-03-15T00:17:58.222Z,100284.34
2019-03-15T00:19:03.583Z,100283.10
2019-03-15T00:20:08.852Z,100290.16
2019-03-15T00:21:14.328Z,100295.90
2019-03-15T00:22:19.024Z,100296.46
2019-03-15T00:23:24.040Z,100288.23
2019-03-15T00:24:28.739Z,100289.00
2019-03-15T00:25:33.800Z,100287.92
2019-03-15T00:26:39.109Z,100289.34
2019-03-15T00:27:45.627Z,100287.11
2019-03-15T00:28:50.332Z,100290.52
2019-03-15T00:29:55.590Z,100293.17
2019-03-15T00:31:00.857Z,100289.09
2019-03-15T00:32:05.596Z,100285.13
2019-03-15T00:33:10.451Z,100286.79
2019-03-15T00:34:16.599Z,100281.22
2019-03-15T00:35:22.277Z,100279.78
2019-03-15T00:36:27.314Z,100274.06
2019-03-15T00:37:32.858Z,100287.50
2019-03-15T00:38:37.918Z,100281.38
2019-03-15T00:39:43.650Z,100283.18
2019-03-15T00:40:48.810Z,100285.05
2019-03-15T00:41:53.794Z,100288.21
2019-03-15T00:42:59.074Z,100285.12
2019-03-15T00:44:04.093Z,100297.44
2019-03-15T00:45:09.313Z,100295.25
2019-03-15T00:46:14.620Z,100297.38
2019-03-15T00:47:19.661Z,100295.16
2019-03-15T00:48:24.894Z,100293.19
2019-03-15T00:49:29.650Z,100299.82
2019-03-15T00:50:35.356Z,100293.86
2019-03-15T00:51:40.676Z,100295.84
2019-03-15T00:52:46.482Z,100289.57
2019-03-15T00:53:54.081Z,100293.20
2019-03-15T00:54:58.461Z,100300.08
2019-03-15T00:56:03.360Z,100299.45
2019-03-15T00:57:08.657Z,100290.57
2019-03-15T00:58:13.692Z,100295.06
2019-03-15T00:59:19.219Z,100290.85
2019-03-15T01:00:24.589Z,100296.25
2019-03-15T01:01:29.916Z,100292.76
2019-03-15T01:02:34.935Z,100293.09
2019-03-15T01:03:39.710Z,100297.50
2019-03-15T01:04:44.388Z,100295.48
2019-03-15T01:05:49.368Z,100287.20
2019-03-15T01:06:54.315Z,100287.78
2019-03-15T01:07:59.657Z,100287.69
2019-03-15T01:09:04.937Z,100290.83
2019-03-15T01:10:10.020Z,100281.61
2019-03-15T01:11:15.273Z,100284.16
2019-03-15T01:12:20.552Z,100286.47
2019-03-15T01:13:26.189Z,100287.85
2019-03-15T01:14:31.305Z,100284.93
2019-03-15T01:15:35.786Z,100284.52
2019-03-15T01:16:41.269Z,100284.73
2019-03-15T01:17:46.515Z,100281.09
2019-03-15T01:18:51.586Z,100282.62
2019-03-15T01:19:57.139Z,100275.61
2019-03-15T01:21:01.971Z,100276.52
2019-03-15T01:22:07.259Z,100278.36
2019-03-15T01:23:12.518Z,100275.36
2019-03-15T01:24:18.098Z,100281.88
2019-03-15T01:25:23.166Z,100270.54
2019-03-15T01:26:28.437Z,100274.70
2019-03-15T01:27:33.160Z,100268.34
2019-03-15T01:28:38.110Z,100271.55
2019-03-15T01:29:42.866Z,100278.80
2019-03-15T01:30:47.557Z,100261.84
2019-03-15T01:31:52.288Z,100266.41
2019-03-15T01:32:57.279Z,100266.09
2019-03-15T01:34:02.319Z,100263.63
2019-03-15T01:35:07.075Z,100266.59
2019-03-15T01:36:12.362Z,100271.47
2019-03-15T01:37:17.639Z,100271.09
2019-03-15T01:38:23.540Z,100273.33
2019-03-15T01:39:28.947Z,100274.48
2019-03-15T01:40:33.722Z,100267.95
2019-03-15T01:41:38.706Z,100272.59
2019-03-15T01:42:43.755Z,100269.10
2019-03-15T01:43:48.726Z,100271.39
2019-03-15T01:44:53.717Z,100266.71
2019-03-15T01:45:59.028Z,100268.13
2019-03-15T01:47:03.764Z,100261.72
2019-03-15T01:48:11.249Z,100269.16
2019-03-15T01:49:16.311Z,100269.84
2019-03-15T01:50:21.875Z,100257.89
2019-03-15T01:51:27.228Z,100263.22
2019-03-15T01:52:33.484Z,100268.72
2019-03-15T01:53:39.097Z,100263.01
2019-03-15T01:54:44.451Z,100264.01
2019-03-15T01:55:49.729Z,100265.13
2019-03-15T01:56:55.112Z,100266.20
2019-03-15T01:58:00.643Z,100262.98
2019-03-15T01:59:05.366Z,100257.48
2019-03-15T02:00:10.914Z,100250.56
2019-03-15T02:01:16.420Z,100252.23
2019-03-15T02:02:22.328Z,100248.97
2019-03-15T02:03:27.343Z,100251.75
2019-03-15T02:04:32.867Z,100250.27
2019-03-15T02:05:37.903Z,100248.36
2019-03-15T02:06:43.743Z,100248.94
2019-03-15T02:07:48.888Z,100251.40
2019-03-15T02:08:53.982Z,100251.98
2019-03-15T02:09:59.210Z,100247.72
2019-03-15T02:11:04.494Z,100245.25
2019-03-15T02:12:09.616Z,100248.47
2019-03-15T02:13:14.601Z,100246.31
2019-03-15T02:14:19.286Z,100249.55
2019-03-15T02:15:24.276Z,100250.53
2019-03-15T02:16:29.452Z,100248.55
2019-03-15T02:17:34.825Z,100255.39
2019-03-15T02:18:40.614Z,100245.92
2019-03-15T02:19:46.239Z,100250.77
2019-03-15T02:20:50.967Z,100256.91
2019-03-15T02:21:55.924Z,100251.36
2019-03-15T02:23:01.109Z,100254.48
2019-03-15T02:24:05.968Z,100250.33
2019-03-15T02:25:10.751Z,100257.17
2019-03-15T02:26:15.543Z,100253.41
2019-03-15T02:27:20.792Z,100245.45
2019-03-15T02:28:25.825Z,100245.20
2019-03-15T02:29:31.446Z,100248.94
2019-03-15T02:30:36.212Z,100242.09
2019-03-15T02:31:40.889Z,100245.36
2019-03-15T02:32:46.419Z,100242.88
2019-03-15T02:33:51.497Z,100252.84
2019-03-15T02:34:56.757Z,100243.11
2019-03-15T02:36:01.757Z,100249.63
2019-03-15T02:37:07.029Z,100241.13
2019-03-15T02:38:12.214Z,100246.38
2019-03-15T02:39:17.426Z,100241.16
2019-03-15T02:40:22.987Z,100249.36
2019-03-15T02:41:27.780Z,100242.17
2019-03-15T02:42:33.026Z,100238.44
2019-03-15T02:43:37.731Z,100240.63
2019-03-15T02:44:43.097Z,100238.37
2019-03-15T02:45:47.824Z,100241.73
2019-03-15T02:46:53.079Z,100240.95
2019-03-15T02:47:58.619Z,100239.77
2019-03-15T02:49:03.414Z,100239.80
2019-03-15T02:50:08.281Z,100241.13
2019-03-15T02:51:13.587Z,100239.61
2019-03-15T02:52:18.265Z,100223.70
2019-03-15T02:53:22.965Z,100229.01
2019-03-15T02:54:27.717Z,100224.33
2019-03-15T02:55:32.677Z,100229.25
2019-03-15T02:56:38.351Z,100234.38
2019-03-15T02:57:43.172Z,100235.02
2019-03-15T02:58:48.422Z,100232.34
2019-03-15T02:59:53.928Z,100236.31
2019-03-15T03:00:58.704Z,100239.39
2019-03-15T03:02:03.934Z,100232.21
2019-03-15T03:03:10.289Z,100233.67
2019-03-15T03:04:15.329Z,100230.81
2019-03-15T03:05:19.994Z,100237.08
2019-03-15T03:06:25.410Z,100242.06
2019-03-15T03:07:30.918Z,100232.91
2019-03-15T03:08:36.038Z,100238.50
2019-03-15T03:09:42.415Z,100243.27
2019-03-15T03:10:47.674Z,100248.47
2019-03-15T03:11:52.364Z,100250.30
2019-03-15T03:12:57.498Z,100248.69
2019-03-15T03:14:02.256Z,100252.64
2019-03-15T03:15:07.098Z,100247.43
2019-03-15T03:16:12.157Z,100243.76
2019-03-15T03:17:17.128Z,100238.15
2019-03-15T03:18:23.172Z,100239.42
2019-03-15T03:19:28.313Z,100243.16
2019-03-15T03:20:33.737Z,100241.72
2019-03-15T03:21:38.994Z,100234.78
2019-03-15T03:22:44.663Z,100233.37
2019-03-15T03:23:49.747Z,100235.35
2019-03-15T03:24:54.882Z,100240.57
2019-03-15T03:26:00.133Z,100247.05
2019-03-15T03:27:05.107Z,100243.83
2019-03-15T03:28:10.808Z,100242.46
2019-03-15T03:29:15.833Z,100239.86
2019-03-15T03:30:21.263Z,100239.80
2019-03-15T03:31:26.843Z,100233.95
2019-03-15T03:32:31.912Z,100233.31
2019-03-15T03:33:36.855Z,100236.27
2019-03-15T03:34:42.448Z,100229.01
2019-03-15T03:35:47.863Z,100223.30
2019-03-15T03:36:52.682Z,100220.07
2019-03-15T03:37:58.450Z,100223.95
2019-03-15T03:39:04.350Z,100225.49
2019-03-15T03:40:09.249Z,100220.14
2019-03-15T03:41:14.509Z,100221.12
2019-03-15T03:42:20.191Z,100218.50
2019-03-15T03:43:25.175Z,100215.53
2019-03-15T03:44:30.455Z,100206.45
2019-03-15T03:45:35.458Z,100207.63
2019-03-15T03:46:40.743Z,100212.22
2019-03-15T03:47:46.258Z,100209.73
2019-03-15T03:48:51.026Z,100213.02
2019-03-15T03:49:55.751Z,100211.95
2019-03-15T03:51:00.896Z,100206.33
2019-03-15T03:52:05.646Z,100209.81
2019-03-15T03:53:10.475Z,100207.03
2019-03-15T03:54:15.994Z,100204.23
2019-03-15T03:55:21.221Z,100210.03
2019-03-15T03:56:26.514Z,100206.16
2019-03-15T03:57:31.495Z,100209.53
2019-03-15T03:58:37.099Z,100206.00
2019-03-15T03:59:43.233Z,100203.48
2019-03-15T04:00:48.592Z,100202.87
2019-03-15T04:01:53.601Z,100201.19
2019-03-15T04:02:59.120Z,100203.73
2019-03-15T04:04:04.558Z,100200.23
2019-03-15T04:05:10.112Z,100198.56
2019-03-15T04:06:15.939Z,100189.84
2019-03-15T04:07:21.206Z,100185.00
2019-03-15T04:08:26.184Z,100187.38
2019-03-15T04:09:31.163Z,100182.92
2019-03-15T04:10:35.725Z,100182.66
2019-03-15T04:11:54.392Z,100185.78
2019-03-15T04:12:48.105Z,100188.58
2019-03-15T04:13:53.356Z,100178.78
2019-03-15T04:14:58.629Z,100191.64
2019-03-15T04:16:03.741Z,100180.92
2019-03-15T04:17:08.463Z,100181.61
2019-03-15T04:18:13.550Z,100181.21
2019-03-15T04:19:18.899Z,100183.37
2019-03-15T04:20:24.155Z,100178.58
2019-03-15T04:21:29.232Z,100183.16
2019-03-15T04:22:34.683Z,100190.05
2019-03-15T04:23:40.134Z,100187.44
2019-03-15T04:24:45.201Z,100196.33
2019-03-15T04:25:50.440Z,100192.73
2019-03-15T04:26:56.113Z,100185.63
2019-03-15T04:28:01.697Z,100186.00
2019-03-15T04:29:06.707Z,100191.17
2019-03-15T04:30:11.321Z,100193.00
2019-03-15T04:31:16.592Z,100196.55
2019-03-15T04:32:21.875Z,100195.45
2019-03-15T04:33:27.432Z,100194.78
2019-03-15T04:34:32.598Z,100182.63
2019-03-15T04:35:38.050Z,100181.75
2019-03-15T04:36:43.373Z,100182.63
2019-03-15T04:37:48.655Z,100183.48
2019-03-15T04:38:53.365Z,100182.86
2019-03-15T04:39:59.070Z,100173.80
2019-03-15T04:41:03.806Z,100184.95
2019-03-15T04:42:09.066Z,100191.20
2019-03-15T04:43:17.052Z,100183.28
2019-03-15T04:44:22.632Z,100185.02
2019-03-15T04:45:27.927Z,100184.67
2019-03-15T04:46:33.505Z,100184.16
2019-03-15T04:47:38.476Z,100184.20
2019-03-15T04:48:43.788Z,100179.95
2019-03-15T04:49:49.085Z,100180.58
2019-03-15T04:50:54.439Z,100187.53
2019-03-15T04:51:59.445Z,100190.23
2019-03-15T04:53:04.510Z,100190.48
2019-03-15T04:54:09.315Z,100189.16
2019-03-15T04:55:14.302Z,100182.23
2019-03-15T04:56:19.718Z,100190.14
2019-03-15T04:57:24.433Z,100185.12
2019-03-15T04:58:29.719Z,100181.93
2019-03-15T04:59:34.566Z,100188.16
2019-03-15T05:00:39.554Z,100188.44
2019-03-15T05:01:44.717Z,100178.75
2019-03-15T05:02:49.527Z,100179.29
2019-03-15T05:03:54.829Z,100180.78
2019-03-15T05:05:00.430Z,100184.10
2019-03-15T05:06:05.759Z,100177.23
2019-03-15T05:07:11.301Z,100180.05
2019-03-15T05:08:16.631Z,100179.13
2019-03-15T05:09:22.360Z,100174.13
2019-03-15T05:10:27.349Z,100180.25
2019-03-15T05:11:32.315Z,100173.58
2019-03-15T05:12:38.002Z,100178.02
2019-03-15T05:13:43.696Z,100177.42
2019-03-15T05:14:49.105Z,100175.59
2019-03-15T05:15:54.375Z,100176.28
2019-03-15T05:16:59.729Z,100172.13
2019-03-15T05:18:04.976Z,100176.63
2019-03-15T05:19:10.309Z,100176.82
2019-03-15T05:20:15.354Z,100174.25
2019-03-15T05:21:20.323Z,100165.94
2019-03-15T05:22:25.667Z,100164.84
2019-03-15T05:23:30.920Z,100166.53
2019-03-15T05:24:36.790Z,100161.65
2019-03-15T05:25:42.014Z,100161.67
2019-03-15T05:26:47.601Z,100158.63
2019-03-15T05:27:52.630Z,100166.98
2019-03-15T05:28:57.691Z,100163.17
2019-03-15T05:30:02.141Z,100161.88
2019-03-15T05:31:06.849Z,100155.94
2019-03-15T05:32:12.439Z,100153.36
2019-03-15T05:33:17.998Z,100157.06
2019-03-15T05:34:23.558Z,100154.12
2019-03-15T05:35:28.818Z,100155.30
2019-03-15T05:36:33.566Z,100145.11
2019-03-15T05:37:38.435Z,100145.69
2019-03-15T05:38:44.076Z,100144.42
2019-03-15T05:39:49.654Z,100145.14
2019-03-15T05:40:54.678Z,100140.43
2019-03-15T05:41:59.738Z,100141.64
2019-03-15T05:43:05.210Z,100138.80
2019-03-15T05:44:10.943Z,100136.80
2019-03-15T05:45:15.991Z,100131.02
2019-03-15T05:46:21.576Z,100130.94
2019-03-15T05:47:26.317Z,100125.37
2019-03-15T05:48:31.619Z,100121.34
2019-03-15T05:49:36.643Z,100122.27
2019-03-15T05:50:41.716Z,100120.48
2019-03-15T05:51:46.692Z,100124.77
2019-03-15T05:52:51.979Z,100119.67
2019-03-15T05:53:57.623Z,100123.20
2019-03-15T05:55:02.752Z,100125.25
2019-03-15T05:56:08.202Z,100120.80
2019-03-15T05:57:13.223Z,100123.60
2019-03-15T05:58:18.179Z,100128.84
2019-03-15T05:59:23.334Z,100126.25
2019-03-15T06:00:28.044Z,100122.84
2019-03-15T06:01:33.435Z,100120.14
2019-03-15T06:02:38.217Z,100124.94
2019-03-15T06:03:48.990Z,100114.18
2019-03-15T06:04:50.616Z,100117.14
2019-03-15T06:05:56.230Z,100122.78
2019-03-15T06:07:01.560Z,100115.59
2019-03-15T06:08:06.566Z,100124.36
2019-03-15T06:09:11.820Z,100118.70
2019-03-15T06:10:17.082Z,100117.57
2019-03-15T06:11:22.065Z,100115.69
2019-03-15T06:12:27.112Z,100108.50
2019-03-15T06:13:32.072Z,100115.39
2019-03-15T06:14:37.674Z,100113.80
2019-03-15T06:15:42.701Z,100108.23
2019-03-15T06:16:47.405Z,100115.59
2019-03-15T06:17:52.178Z,100105.78
2019-03-15T06:18:57.269Z,100110.67
2019-03-15T06:20:02.769Z,100102.23
2019-03-15T06:21:07.715Z,100099.97
2019-03-15T06:22:12.701Z,100093.88
2019-03-15T06:23:17.674Z,100090.41
2019-03-15T06:24:23.413Z,100100.01
2019-03-15T06:25:28.564Z,100096.56
2019-03-15T06:26:33.725Z,100097.17
2019-03-15T06:27:38.715Z,100092.45
2019-03-15T06:28:43.727Z,100092.50
2019-03-15T06:29:48.695Z,100088.25
2019-03-15T06:30:54.023Z,100090.88
2019-03-15T06:31:59.709Z,100086.55
2019-03-15T06:33:04.693Z,100086.99
2019-03-15T06:34:09.665Z,100083.47
2019-03-15T06:35:14.656Z,100087.42
2019-03-15T06:36:19.981Z,100089.84
2019-03-15T06:37:25.266Z,100088.36
2019-03-15T06:38:33.312Z,100092.58
2019-03-15T06:39:37.493Z,100083.81
2019-03-15T06:40:42.532Z,100083.41
2019-03-15T06:41:47.552Z,100078.77
2019-03-15T06:42:52.986Z,100073.28
2019-03-15T06:43:58.552Z,100080.98
2019-03-15T06:45:03.811Z,100072.30
2019-03-15T06:46:08.893Z,100073.26
2019-03-15T06:47:13.952Z,100073.13
2019-03-15T06:48:18.758Z,100074.98
2019-03-15T06:49:24.423Z,100067.19
2019-03-15T06:50:29.448Z,100064.68
2019-03-15T06:51:34.117Z,100062.33
2019-03-15T06:52:39.120Z,100061.50
2019-03-15T06:53:47.683Z,100065.39
2019-03-15T06:54:51.264Z,100068.80
2019-03-15T06:55:55.998Z,100064.73
2019-03-15T06:57:00.957Z,100055.10
2019-03-15T06:58:05.943Z,100060.58
2019-03-15T06:59:11.589Z,100062.33
2019-03-15T07:00:16.117Z,100061.68
2019-03-15T07:01:21.620Z,100063.34
2019-03-15T07:02:27.313Z,100070.72
2019-03-15T07:03:32.824Z,100059.31
2019-03-15T07:04:37.712Z,100062.09
2019-03-15T07:05:43.191Z,100053.90
2019-03-15T07:06:48.494Z,100049.01
2019-03-15T07:07:53.458Z,100058.33
2019-03-15T07:08:58.769Z,100054.97
2019-03-15T07:10:04.526Z,100058.08
2019-03-15T07:11:09.310Z,100058.52
2019-03-15T07:12:14.078Z,100055.84
2019-03-15T07:13:18.776Z,100047.40
2019-03-15T07:14:23.482Z,100042.67
2019-03-15T07:15:28.247Z,100040.77
2019-03-15T07:16:33.203Z,100033.48
2019-03-15T07:17:38.525Z,100038.55
2019-03-15T07:18:44.011Z,100036.49
2019-03-15T07:19:49.275Z,100031.88
2019-03-15T07:20:54.279Z,100033.56
2019-03-15T07:21:59.601Z,100029.20
2019-03-15T07:23:04.110Z,100023.80
2019-03-15T07:24:09.830Z,100017.02
2019-03-15T07:25:14.666Z,100020.18
2019-03-15T07:26:19.150Z,100010.85
2019-03-15T07:27:24.476Z,100018.30
2019-03-15T07:28:29.551Z,100015.44
2019-03-15T07:29:34.599Z,100012.69
2019-03-15T07:30:39.357Z,100010.31
2019-03-15T07:31:44.415Z,100010.08
2019-03-15T07:32:49.677Z,100010.86
2019-03-15T07:33:54.678Z,100001.64
2019-03-15T07:34:59.446Z,100013.28
2019-03-15T07:36:04.546Z,100011.97
2019-03-15T07:37:09.523Z,100004.08
2019-03-15T07:38:14.851Z,100009.61
2019-03-15T07:39:20.189Z,100003.28
2019-03-15T07:40:24.893Z,100002.16
2019-03-15T07:41:30.190Z,99998.52
2019-03-15T07:42:35.601Z,99996.33
2019-03-15T07:43:41.058Z,99995.42
2019-03-15T07:44:48.855Z,99997.95
2019-03-15T07:45:53.006Z,99997.51
2019-03-15T07:46:58.008Z,99992.47
2019-03-15T07:48:03.188Z,99993.61
2019-03-15T07:49:07.888Z,99988.91
2019-03-15T07:50:14.273Z,99989.06
2019-03-15T07:51:18.999Z,99985.83
2019-03-15T07:52:24.098Z,99988.70
2019-03-15T07:53:29.621Z,99984.89
2019-03-15T07:54:38.361Z,99982.73
2019-03-15T07:55:41.449Z,99982.00
2019-03-15T07:56:46.426Z,99976.16
2019-03-15T07:57:51.140Z,99974.30
2019-03-15T07:58:56.526Z,99982.18
2019-03-15T08:00:02.133Z,99977.39
2019-03-15T08:01:07.156Z,99975.90
2019-03-15T08:02:11.904Z,99976.52
2019-03-15T08:03:17.059Z,99976.02
2019-03-15T08:04:22.419Z,99981.14
2019-03-15T08:05:27.952Z,99977.08
2019-03-15T08:06:35.041Z,99981.02
2019-03-15T08:07:45.357Z,99982.77
2019-03-15T08:08:46.771Z,99977.61
2019-03-15T08:09:52.125Z,99978.45
2019-03-15T08:10:57.111Z,99970.42
2019-03-15T08:12:02.704Z,99972.35
2019-03-15T08:13:07.952Z,99980.34
2019-03-15T08:14:13.241Z,99980.58
2019-03-15T08:15:17.997Z,99976.34
2019-03-15T08:16:23.172Z,99974.19
2019-03-15T08:17:27.692Z,99973.55
2019-03-15T08:18:32.419Z,99967.73
2019-03-15T08:19:37.578Z,99969.13
2019-03-15T08:20:42.878Z,99968.50
2019-03-15T08:21:47.880Z,99973.92
2019-03-15T08:22:53.186Z,99964.18
2019-03-15T08:23:58.143Z,99967.75
2019-03-15T08:25:03.561Z,99965.81
2019-03-15T08:26:08.758Z,99969.65
2019-03-15T08:27:16.118Z,99964.55
2019-03-15T08:28:20.227Z,99961.50
2019-03-15T08:29:25.279Z,99955.65
2019-03-15T08:30:30.529Z,99961.28
2019-03-15T08:31:35.502Z,99958.66
2019-03-15T08:32:43.521Z,99965.78
2019-03-15T08:33:47.051Z,99965.25
2019-03-15T08:34:52.073Z,99966.26
2019-03-15T08:35:57.629Z,99961.45
2019-03-15T08:37:02.346Z,99967.15
2019-03-15T08:38:07.609Z,99967.91
2019-03-15T08:39:12.905Z,99962.70
2019-03-15T08:40:17.702Z,99961.11
2019-03-15T08:41:23.276Z,99961.22
2019-03-15T08:42:28.527Z,99967.84
2019-03-15T08:43:34.085Z,99958.97
2019-03-15T08:44:39.081Z,99966.67
2019-03-15T08:45:43.891Z,99957.06
2019-03-15T08:46:48.824Z,99967.56
2019-03-15T08:47:53.871Z,99960.26
2019-03-15T08:48:59.165Z,99959.51
2019-03-15T08:50:04.033Z,99963.05
2019-03-15T08:51:10.741Z,99959.48
2019-03-15T08:52:16.093Z,99958.98
2019-03-15T08:53:21.069Z,99960.99
2019-03-15T08:54:26.032Z,99961.38
2019-03-15T08:55:31.578Z,99959.30
2019-03-15T08:56:36.321Z,99957.78
2019-03-15T08:57:41.676Z,99958.84
2019-03-15T08:58:46.638Z,99967.00
2019-03-15T08:59:57.012Z,99962.97
2019-03-15T09:00:58.921Z,99962.05
2019-03-15T09:02:03.954Z,99962.20
2019-03-15T09:03:09.063Z,99966.11
2019-03-15T09:04:14.164Z,99962.05
2019-03-15T09:05:18.632Z,99961.01
2019-03-15T09:06:23.975Z,99962.20
2019-03-15T09:07:28.659Z,99965.66
2019-03-15T09:08:33.139Z,99959.71
2019-03-15T09:09:38.170Z,99964.27
2019-03-15T09:10:43.484Z,99965.22
2019-03-15T09:11:48.810Z,99962.95
2019-03-15T09:12:53.778Z,99965.20
2019-03-15T09:13:59.069Z,99962.97
2019-03-15T09:15:04.363Z,99968.77
2019-03-15T09:16:09.635Z,99963.66
2019-03-15T09:17:14.614Z,99967.31
2019-03-15T09:18:19.603Z,99966.36
2019-03-15T09:19:24.652Z,99963.89
2019-03-15T09:20:30.780Z,99963.78
2019-03-15T09:21:36.158Z,99965.66
2019-03-15T09:22:41.564Z,99961.00
2019-03-15T09:23:46.561Z,99961.71
2019-03-15T09:24:51.834Z,99957.16
2019-03-15T09:25:56.810Z,99957.70
2019-03-15T09:27:01.314Z,99950.28
2019-03-15T09:28:06.011Z,99959.57
2019-03-15T09:29:11.261Z,99957.13
2019-03-15T09:30:23.412Z,99952.05
2019-03-15T09:31:22.350Z,99959.41
2019-03-15T09:32:27.704Z,99960.10
2019-03-15T09:33:33.030Z,99962.37
2019-03-15T09:34:37.749Z,99962.46
2019-03-15T09:35:43.010Z,99956.98
2019-03-15T09:36:50.324Z,99968.23
2019-03-15T09:37:55.308Z,99968.02
2019-03-15T09:39:00.674Z,99971.79
2019-03-15T09:40:05.843Z,99977.22
2019-03-15T09:41:11.071Z,99958.57
2019-03-15T09:42:15.999Z,99973.28
2019-03-15T09:43:21.286Z,99961.45
2019-03-15T09:44:26.325Z,99967.53
2019-03-15T09:45:31.308Z,99968.45
2019-03-15T09:46:36.304Z,99956.55
2019-03-15T09:47:41.568Z,99967.25
2019-03-15T09:48:47.194Z,99964.77
2019-03-15T09:49:52.195Z,99962.53
2019-03-15T09:50:57.158Z,99962.75
2019-03-15T09:52:02.197Z,99963.61
2019-03-15T09:53:07.228Z,99962.00
2019-03-15T09:54:12.222Z,99966.98
2019-03-15T09:55:16.915Z,99950.61
2019-03-15T09:56:21.805Z,99958.07
2019-03-15T09:57:26.512Z,99953.58
2019-03-15T09:58:31.505Z,99963.72
2019-03-15T09:59:36.229Z,99969.52
2019-03-15T10:00:41.476Z,99968.00
2019-03-15T10:01:46.544Z,99976.16
2019-03-15T10:02:51.671Z,99969.50
2019-03-15T10:03:56.676Z,99959.75
2019-03-15T10:05:11.023Z,99967.98
2019-03-15T10:06:15.371Z,99970.27
2019-03-15T10:07:15.433Z,99975.03
2019-03-15T10:08:23.284Z,99968.11
2019-03-15T10:09:26.708Z,99966.85
2019-03-15T10:10:31.969Z,99963.92
2019-03-15T10:11:36.763Z,99966.45
2019-03-15T10:12:42.822Z,99970.81
2019-03-15T10:13:47.908Z,99961.16
2019-03-15T10:14:53.198Z,99959.21
2019-03-15T10:15:58.455Z,99969.86
2019-03-15T10:17:03.473Z,99971.66
2019-03-15T10:18:08.556Z,99965.49
2019-03-15T10:19:13.629Z,99966.97
2019-03-15T10:20:18.927Z,99976.51
2019-03-15T10:21:24.486Z,99964.98
2019-03-15T10:22:28.971Z,99976.66
2019-03-15T10:23:34.239Z,99967.12
2019-03-15T10:24:39.542Z,99971.11
2019-03-15T10:25:50.793Z,99962.61
2019-03-15T10:26:53.029Z,99978.62
2019-03-15T10:27:58.402Z,99976.23
2019-03-15T10:29:14.554Z,99978.19
2019-03-15T10:30:11.752Z,99985.65
2019-03-15T10:31:16.452Z,99984.44
2019-03-15T10:32:21.487Z,99992.32
2019-03-15T10:33:25.916Z,99987.79
2019-03-15T10:34:30.976Z,99979.73
2019-03-15T10:35:35.941Z,99986.64
2019-03-15T10:36:41.192Z,99994.30
2019-03-15T10:37:48.467Z,100003.75
2019-03-15T10:38:53.448Z,99993.66
2019-03-15T10:39:58.419Z,99993.84
2019-03-15T10:41:03.441Z,99996.50
2019-03-15T10:42:08.180Z,99999.48
2019-03-15T10:43:13.148Z,99993.09
2019-03-15T10:44:17.964Z,100008.66
2019-03-15T10:45:22.912Z,100000.75
2019-03-15T10:46:28.498Z,100003.65
2019-03-15T10:47:33.792Z,99999.75
2019-03-15T10:48:39.371Z,100012.13
2019-03-15T10:49:44.411Z,100006.56
2019-03-15T10:50:49.381Z,100002.91
2019-03-15T10:51:54.065Z,100006.71
2019-03-15T10:52:59.448Z,100008.21
2019-03-15T10:54:04.244Z,100011.30
2019-03-15T10:55:09.327Z,100003.75
2019-03-15T10:56:14.296Z,100018.74
2019-03-15T10:57:19.331Z,100021.60
2019-03-15T10:58:24.356Z,100013.52
2019-03-15T10:59:29.922Z,100020.75
2019-03-15T11:00:35.052Z,100020.53
2019-03-15T11:01:40.441Z,100014.91
2019-03-15T11:02:46.006Z,100020.53
2019-03-15T11:03:51.556Z,100027.28
2019-03-15T11:04:56.836Z,100020.67
2019-03-15T11:06:02.371Z,100028.58
2019-03-15T11:07:07.097Z,100033.08
2019-03-15T11:08:12.081Z,100026.83
2019-03-15T11:09:17.289Z,100031.13
2019-03-15T11:10:22.004Z,100028.61
2019-03-15T11:11:27.421Z,100028.58
2019-03-15T11:12:32.452Z,100030.02
2019-03-15T11:13:36.892Z,100030.74
2019-03-15T11:14:41.617Z,100024.55
2019-03-15T11:15:46.941Z,100025.44
2019-03-15T11:16:51.944Z,100031.41
2019-03-15T11:17:57.563Z,100043.89
2019-03-15T11:19:02.551Z,100040.41
2019-03-15T11:20:07.740Z,100038.53
2019-03-15T11:21:12.773Z,100047.50
2019-03-15T11:22:18.000Z,100036.52
2019-03-15T11:23:23.272Z,100029.99
2019-03-15T11:24:28.324Z,100042.55
2019-03-15T11:25:33.381Z,100046.00
2019-03-15T11:26:38.933Z,100050.27
2019-03-15T11:27:44.229Z,100057.87
2019-03-15T11:28:49.469Z,100044.78
2019-03-15T11:29:54.607Z,100045.33
2019-03-15T11:31:00.783Z,100046.98
2019-03-15T11:32:05.477Z,100053.55
2019-03-15T11:33:10.448Z,100055.48
2019-03-15T11:34:15.422Z,100054.58
2019-03-15T11:35:21.408Z,100056.19
2019-03-15T11:36:26.669Z,100061.95
2019-03-15T11:37:31.436Z,100066.38
2019-03-15T11:38:36.666Z,100064.09
2019-03-15T11:39:42.207Z,100065.66
2019-03-15T11:40:46.904Z,100069.19
2019-03-15T11:41:51.783Z,100064.06
2019-03-15T11:42:57.178Z,100070.30
2019-03-15T11:44:02.159Z,100060.09
2019-03-15T11:45:07.615Z,100059.50
2019-03-15T11:46:16.297Z,100063.61
2019-03-15T11:47:19.949Z,100054.27
2019-03-15T11:48:25.394Z,100064.84
2019-03-15T11:49:30.692Z,100054.31
2019-03-15T11:50:35.652Z,100047.34
2019-03-15T11:51:42.547Z,100050.16
2019-03-15T11:52:47.867Z,100059.80
2019-03-15T11:53:52.939Z,100053.34
2019-03-15T11:54:58.532Z,100054.34
2019-03-15T11:56:03.230Z,100063.02
2019-03-15T11:57:08.513Z,100065.20
2019-03-15T11:58:13.570Z,100058.73
2019-03-15T11:59:18.944Z,100059.95
2019-03-15T12:00:23.964Z,100067.72
2019-03-15T12:01:28.678Z,100066.01
2019-03-15T12:02:33.648Z,100056.06
2019-03-15T12:03:52.081Z,100063.64
2019-03-15T12:04:45.278Z,100068.70
2019-03-15T12:05:49.734Z,100069.79
2019-03-15T12:06:54.754Z,100069.33
2019-03-15T12:07:59.734Z,100060.78
2019-03-15T12:09:05.159Z,100054.50
2019-03-15T12:10:10.668Z,100067.13
2019-03-15T12:11:15.690Z,100077.94
2019-03-15T12:12:21.809Z,100055.67
2019-03-15T12:13:27.104Z,100060.49
2019-03-15T12:14:40.828Z,100056.30
2019-03-15T12:15:39.251Z,100065.34
2019-03-15T12:16:44.667Z,100066.77
2019-03-15T12:17:49.443Z,100062.59
2019-03-15T12:18:54.141Z,100052.02
2019-03-15T12:19:58.843Z,100054.61
2019-03-15T12:21:03.915Z,100061.09
2019-03-15T12:22:08.700Z,100056.16
2019-03-15T12:23:13.678Z,100054.41
2019-03-15T12:24:19.164Z,100062.47
2019-03-15T12:25:24.514Z,100066.25
2019-03-15T12:26:39.736Z,100068.94
2019-03-15T12:27:36.322Z,100070.03
2019-03-15T12:28:41.298Z,100060.70
2019-03-15T12:29:46.042Z,100058.13